Airfield :
LOGIN :

Register | Disclaimer

   EN    FR    IT 

 










Legend :    VFR   Marginal VFR   IFR   Intensive IFR   Very Intensive IFR
Visi :
Ceiling :
>= 8 km
>= 3000ft
5 to 8 km
1000 to 3000 ft
1500m to 5 km
500 to 1000 ft
800 to 1500m
200 to 500 ft
< 800m
< 200 ft
Symbols :   Thunderstorms  Fog  Heavy snow  Heavy precipitations  Wind > 20 kt
SIGMETs :     Misc.  Thunderstorms  Icing  Turbulence  Mountain Waves  Volcanic Ashes






- Airport Elevation : 219 ft
- IATA code : DNR


LFRD - Dinard

CURRENT METAR :
  • 041500Z AUTO 14012KT 100V170 CAVOK 18/05 Q1016

EXPIRED METARs :
  • 041430Z AUTO 13010KT 080V170 CAVOK 18/05 Q1016
  • 041400Z AUTO 16012KT 120V180 CAVOK 17/05 Q1017
  • 041330Z AUTO 15012KT 110V180 CAVOK 17/05 Q1017
  • 041300Z AUTO 14011KT 090V190 CAVOK 17/05 Q1017
  • 041230Z AUTO 16014KT 130V200 CAVOK 16/04 Q1018

Expired Forecast.
ATIS : +33 2 99 16 81 50



MET'MAP, your aeronautical weather chart ! - Copyright ORBIFLY December 2007 - Disclaimer

ORBIFLY MET'MAP TEAM :

Programming & Development : Alexandra Zaïnal
Concept & original design : Baudouin d'Aumeries
Assistance for programming : Marc-Olivier Méhu
Technical & hardware support : Manuel Goepfert

Contact : metmap@orbifly.com




SOURCES & CREDITS :

   NOAA